Thursday, November 23, 2017, 2:21 AM EST
Back to Local

KESN, Easton / Newman Field

Location: Easton, MD, United States Lat: 38.8
Local Time: 2:21 AM EST ( 7:21 GMT) Lon: -76.067
Time Zone: US/Eastern Elev: 72 ft

Show me the last for .
Show Decoded

2017-11-23 02:16 METAR KESN 230716Z AUTO 00000KT 10SM CLR 00/M03 A3019 RMK AO2 T00031034 =
2017-11-23 01:56 METAR KESN 230656Z AUTO 00000KT 10SM CLR 02/M03 A3019 RMK AO2 T00151033 =
2017-11-23 01:36 METAR KESN 230636Z AUTO 00000KT 10SM CLR 02/M04 A3019 RMK AO2 T00221039 =
2017-11-23 01:16 METAR KESN 230616Z AUTO 00000KT 10SM CLR 03/M04 A3019 RMK AO2 T00301040 =
2017-11-23 00:56 METAR KESN 230556Z AUTO 35003KT 10SM CLR 03/M04 A3019 RMK AO2 T00291036 10084
                 20025 401570025 =
2017-11-23 00:36 METAR KESN 230536Z AUTO 35003KT 10SM CLR 03/M04 A3019 RMK AO2 T00261036 =
2017-11-23 00:16 METAR KESN 230516Z AUTO 01003KT 10SM CLR 03/M04 A3019 RMK AO2 T00341040 =
2017-11-22 23:56 METAR KESN 230456Z AUTO 36006KT 10SM CLR 04/M04 A3019 RMK AO2 T00381040 =
2017-11-22 23:36 METAR KESN 230436Z AUTO 36005KT 10SM CLR 04/M04 A3020 RMK AO2 T00421040 =
2017-11-22 23:16 METAR KESN 230416Z AUTO 36006KT 10SM CLR 04/M04 A3020 RMK AO2 T00441039 =
2017-11-22 22:56 METAR KESN 230356Z AUTO 36005KT 10SM CLR 04/M04 A3020 RMK AO2 T00441038 =
2017-11-22 22:36 METAR KESN 230336Z AUTO 02006KT 10SM CLR 05/M04 A3019 RMK AO2 T00481040 =
2017-11-22 22:16 METAR KESN 230316Z AUTO 36008KT 10SM CLR 05/M04 A3019 RMK AO2 T00511040 =
2017-11-22 21:50 METAR KESN 230250Z 36008G14KT 10SM SCT050 05/M04 A3019 =
2017-11-22 20:50 METAR KESN 230150Z 36009G14KT 10SM SCT050 06/M03 A3016 =
2017-11-22 19:50 METAR KESN 230050Z 34010G17KT 10SM SCT050 07/M02 A3014 =
2017-11-22 18:50 METAR KESN 222350Z 35006KT 10SM OVC050 08/M01 A3013 =
2017-11-22 17:50 METAR KESN 222250Z 35005KT 10SM BKN050 08/M01 A3011 =
2017-11-22 16:50 METAR KESN 222150Z 33011G16KT 10SM FEW060 09/M01 A3010 =
2017-11-22 15:55 METAR KESN 222055Z 33012G23KT 10SM FEW100 10/M01 A3006 =
2017-11-22 14:54 METAR KESN 221954Z 33017G23KT 10SM FEW200 12/M01 A3003 =
2017-11-22 13:56 METAR KESN 221856Z 33013G22KT 10SM FEW200 13/00 A3001 =
2017-11-22 12:52 METAR KESN 221752Z 33018G25KT 10SM FEW200 14/02 A2999 =
2017-11-22 11:50 METAR KESN 221650Z 35013G21KT 10SM FEW200 15/03 A2998 =
2017-11-22 10:50 METAR KESN 221550Z 33016G23KT 10SM FEW200 15/04 A2997 =
2017-11-22 09:47 METAR KESN 221447Z 34006KT 10SM BKN120 13/08 A2997 =
2017-11-22 07:45 METAR KESN 221245Z 29005KT 7SM BKN029 BKN033 12/11 A2996 =
2017-11-22 06:45 METAR KESN 221145Z 28004KT 7SM OVC006 13/12 A2995 =
2017-11-22 05:45 METAR KESN 221045Z 23004KT 3SM RA BKN009 OVC015 13/09 A2995 =
2017-11-22 05:05 METAR KESN 221005Z AUTO 28004KT 7SM RA SCT006 BKN014 BKN035 12/11 A2996 RMK AO2
                 P0001 T01200112 =
2017-11-22 04:56 METAR KESN 220956Z AUTO 28005KT 5SM BR SCT008 SCT014 SCT034 12/11 A2996 RMK AO2
                 P0001 T01200112 =
2017-11-22 04:36 METAR KESN 220936Z AUTO 00000KT 1/2SM -RA SCT009 BKN038 BKN047 11/10 A2995 RMK
                 AO2 T01090100 =
2017-11-22 04:16 METAR KESN 220916Z AUTO 00000KT 1/2SM FG BKN035 BKN045 OVC120 11/10 A2995 RMK
                 AO2 T01120104 =
2017-11-22 03:56 METAR KESN 220856Z AUTO 00000KT 1 1/2SM BR SCT065 BKN120 12/11 A2997 RMK AO2
                 60003 T01150106 =
2017-11-22 03:36 METAR KESN 220836Z AUTO 00000KT 7SM SCT046 BKN120 12/11 A2997 RMK AO2 T01180109
                 =
2017-11-22 03:16 METAR KESN 220816Z AUTO 00000KT 10SM SCT046 SCT075 SCT095 13/11 A2998 RMK AO2
                 T01250114 =
2017-11-22 02:56 METAR KESN 220756Z AUTO 00000KT 10SM RA SCT026 SCT075 BKN090 13/11 A2999 RMK AO2
                 T01250112 =
2017-11-22 02:36 METAR KESN 220736Z AUTO 29004KT 10SM -RA SCT024 SCT075 SCT090 13/11 A3001 RMK
                 AO2 T01260114 =

Support USWX by starting your Amazon purchase here.